Time;durP1;ratioP1;P1;durP2;ratioP2;P2;SDS_P1;SDS_P2;PMS_P1;PMS_P2;Temp;Humidity;BMP_temperature;BMP_pressure;BME280_temperature;BME280_humidity;BME280_pressure;Samples;Min_cycle;Max_cycle;Signal;HPM_P1;HPM_P2
2023/10/17 00:00:45;;;;;;;6.27;2.73;;;2.20;99.90;;;;;;5022596;28;21808;-61
2023/10/17 00:03:14;;;;;;;2.73;2.00;;;2.20;99.90;;;;;;5020244;28;20461;-61
2023/10/17 00:05:41;;;;;;;8.40;2.07;;;2.20;99.90;;;;;;5022746;28;20425;-61
2023/10/17 00:08:09;;;;;;;2.27;1.30;;;2.10;99.90;;;;;;5021788;28;20429;-61
2023/10/17 00:10:44;;;;;;;6.17;2.70;;;2.20;99.90;;;;;;5021524;28;20894;-61
2023/10/17 00:13:25;;;;;;;5.10;1.67;;;2.20;99.90;;;;;;5020684;28;20436;-61
2023/10/17 00:15:52;;;;;;;2.80;1.77;;;2.10;99.90;;;;;;5020475;28;20437;-61
2023/10/17 00:18:20;;;;;;;2.50;1.67;;;2.20;99.90;;;;;;5020335;28;20512;-61
2023/10/17 00:20:50;;;;;;;3.00;1.33;;;2.10;99.90;;;;;;5023303;28;20516;-61
2023/10/17 00:23:20;;;;;;;4.00;2.23;;;2.10;99.90;;;;;;5020031;28;20809;-61
2023/10/17 00:25:49;;;;;;;5.33;2.93;;;2.00;99.90;;;;;;5023037;28;20444;-61
2023/10/17 00:28:20;;;;;;;3.43;1.87;;;1.90;99.90;;;;;;5019277;28;20429;-61
2023/10/17 00:30:48;;;;;;;4.30;1.87;;;1.90;99.90;;;;;;5022238;28;20536;-61
2023/10/17 00:33:15;;;;;;;2.80;1.37;;;1.90;99.90;;;;;;5020852;28;20925;-61
2023/10/17 00:35:47;;;;;;;6.47;2.60;;;1.90;99.90;;;;;;5022204;28;20705;-62
2023/10/17 00:38:15;;;;;;;2.83;1.87;;;1.80;99.90;;;;;;5020996;28;20528;-61
2023/10/17 00:43:12;;;;;;;4.27;2.23;;;1.90;99.90;;;;;;5018655;28;20810;-61
2023/10/17 00:45:38;;;;;;;3.27;2.10;;;1.90;99.90;;;;;;5019400;28;20434;-61
2023/10/17 00:48:08;;;;;;;4.83;2.90;;;1.90;99.90;;;;;;5020057;28;20194;-61
2023/10/17 00:50:35;;;;;;;5.27;2.60;;;1.80;99.90;;;;;;5020987;28;20186;-61
2023/10/17 00:53:01;;;;;;;3.90;2.20;;;1.80;99.90;;;;;;5020038;28;20540;-62
2023/10/17 00:55:27;;;;;;;7.20;2.70;;;1.70;99.90;;;;;;5019696;28;20437;-61
2023/10/17 00:57:56;;;;;;;7.07;2.23;;;1.70;99.90;;;;;;5020894;28;20202;-61
2023/10/17 01:00:45;;;;;;;4.70;2.40;;;1.70;99.90;;;;;;5018093;28;20265;-61
2023/10/17 01:03:10;;;;;;;3.07;1.70;;;1.70;99.90;;;;;;5020070;28;20465;-61
2023/10/17 01:08:39;;;;;;;4.60;2.50;;;1.60;99.90;;;;;;5020918;28;20198;-61
2023/10/17 01:11:20;;;;;;;5.50;2.50;;;1.70;99.90;;;;;;5019990;28;20436;-61
2023/10/17 01:13:53;;;;;;;5.50;2.27;;;1.60;99.90;;;;;;5020078;28;20429;-61
2023/10/17 01:16:24;;;;;;;6.63;2.60;;;1.50;99.90;;;;;;5017803;28;20434;-61
2023/10/17 01:18:50;;;;;;;2.97;1.80;;;1.40;99.90;;;;;;5018370;28;20441;-61
2023/10/17 01:21:20;;;;;;;6.00;2.07;;;1.40;99.90;;;;;;5020062;28;21335;-61
2023/10/17 01:23:47;;;;;;;3.50;2.03;;;1.50;99.90;;;;;;5019166;28;20518;-61
2023/10/17 01:26:26;;;;;;;2.70;2.00;;;1.50;99.90;;;;;;5037199;28;20925;-61
2023/10/17 01:28:53;;;;;;;3.90;2.40;;;1.50;99.90;;;;;;5020552;28;20490;-61
2023/10/17 01:31:22;;;;;;;8.93;2.27;;;1.50;99.90;;;;;;5020010;28;20439;-61
2023/10/17 01:33:55;;;;;;;5.17;2.43;;;1.50;99.90;;;;;;5017476;28;20430;-61
2023/10/17 01:36:21;;;;;;;9.00;4.03;;;1.50;99.90;;;;;;5020894;28;20498;-61
2023/10/17 01:38:50;;;;;;;3.93;2.70;;;1.50;99.90;;;;;;5018671;28;20452;-61
2023/10/17 01:41:20;;;;;;;5.83;2.90;;;1.60;99.90;;;;;;5020131;28;21784;-61
2023/10/17 01:43:46;;;;;;;6.17;2.83;;;1.50;99.90;;;;;;5020466;28;20726;-61
2023/10/17 01:46:21;;;;;;;4.90;2.57;;;1.50;99.90;;;;;;5017930;28;20427;-61
2023/10/17 01:48:48;;;;;;;5.53;2.20;;;1.40;99.90;;;;;;5019952;28;20428;-61
2023/10/17 01:51:19;;;;;;;4.37;2.47;;;1.30;99.90;;;;;;5020835;28;20775;-61
2023/10/17 01:53:50;;;;;;;5.33;2.53;;;1.20;99.90;;;;;;5018913;28;20444;-61
2023/10/17 01:56:16;;;;;;;8.60;2.43;;;1.20;99.90;;;;;;5017794;28;20543;-61
2023/10/17 01:58:51;;;;;;;4.57;2.80;;;1.20;99.90;;;;;;5016862;28;20460;-61
2023/10/17 02:01:29;;;;;;;8.60;2.70;;;1.10;99.90;;;;;;5021605;28;20460;-61
2023/10/17 02:04:03;;;;;;;4.80;2.20;;;1.10;99.90;;;;;;5018498;28;20563;-61
2023/10/17 02:06:30;;;;;;;7.53;3.37;;;1.20;99.90;;;;;;5020670;28;20424;-61
2023/10/17 02:08:58;;;;;;;4.13;2.53;;;1.20;99.90;;;;;;5019905;28;20433;-61
2023/10/17 02:11:24;;;;;;;6.90;3.00;;;;;;;;;;5018015;28;20421;-61
2023/10/17 02:13:57;;;;;;;4.40;2.00;;;1.30;99.90;;;;;;5019535;28;20421;-61
2023/10/17 02:16:32;;;;;;;3.57;2.03;;;1.20;99.90;;;;;;5019173;28;20433;-61
2023/10/17 02:18:58;;;;;;;5.33;2.93;;;1.10;99.90;;;;;;5018877;28;20428;-61
2023/10/17 02:21:27;;;;;;;7.83;3.23;;;1.10;99.90;;;;;;5019171;28;20821;-61
2023/10/17 02:23:53;;;;;;;3.80;2.40;;;;;;;;;;5018388;28;20465;-61
2023/10/17 02:26:22;;;;;;;3.73;2.40;;;1.00;99.90;;;;;;5019061;28;20432;-61
2023/10/17 02:28:49;;;;;;;2.97;2.00;;;1.00;99.90;;;;;;5017764;28;20469;-61
2023/10/17 02:31:16;;;;;;;6.77;2.90;;;1.00;99.90;;;;;;5020482;28;20796;-61
2023/10/17 02:33:42;;;;;;;5.53;2.57;;;;;;;;;;5017400;28;20441;-61
2023/10/17 02:36:13;;;;;;;5.47;2.17;;;1.10;99.90;;;;;;5020032;28;20437;-61
2023/10/17 02:38:40;;;;;;;5.80;2.70;;;1.10;99.90;;;;;;5017727;28;20925;-61
2023/10/17 02:41:19;;;;;;;4.03;2.43;;;1.00;99.90;;;;;;5019244;28;20433;-61
2023/10/17 02:43:52;;;;;;;4.37;2.20;;;1.00;99.90;;;;;;5019760;28;20579;-61
2023/10/17 02:46:18;;;;;;;5.30;3.17;;;1.10;99.90;;;;;;5019133;28;20971;-61
2023/10/17 02:48:45;;;;;;;4.77;2.33;;;1.10;99.90;;;;;;5018373;28;20898;-61
2023/10/17 02:53:56;;;;;;;7.43;2.50;;;1.20;99.90;;;;;;5019227;28;20444;-61
2023/10/17 02:56:23;;;;;;;5.53;2.90;;;1.00;99.90;;;;;;5018453;28;20487;-61
2023/10/17 02:58:50;;;;;;;5.47;2.50;;;;;;;;;;5017869;28;20463;-61
2023/10/17 03:01:17;;;;;;;6.60;2.97;;;1.10;99.90;;;;;;5021071;28;20838;-61
2023/10/17 03:03:43;;;;;;;6.30;3.60;;;;;;;;;;5017389;28;20476;-61
2023/10/17 03:06:09;;;;;;;6.67;2.33;;;;;;;;;;5020318;28;20544;-62
2023/10/17 03:08:36;;;;;;;6.93;2.50;;;1.10;99.90;;;;;;5020180;28;20440;-61
2023/10/17 03:11:02;;;;;;;6.10;3.60;;;1.00;99.90;;;;;;5021778;28;20436;-61
2023/10/17 03:13:49;;;;;;;6.07;3.17;;;1.10;99.90;;;;;;5022534;28;20465;-61
2023/10/17 03:16:24;;;;;;;7.20;3.80;;;;;;;;;;5022604;28;20444;-61
2023/10/17 03:18:50;;;;;;;5.13;2.47;;;;;;;;;;5022397;28;20436;-61
2023/10/17 03:21:29;;;;;;;6.10;2.80;;;1.10;99.90;;;;;;5023866;28;20480;-61
2023/10/17 03:24:00;;;;;;;4.17;2.37;;;1.20;99.90;;;;;;5022275;28;21855;-61
2023/10/17 03:26:26;;;;;;;8.43;2.07;;;;;;;;;;5021456;28;20466;-61
2023/10/17 03:28:51;;;;;;;7.27;3.00;;;1.20;99.90;;;;;;5022780;28;20437;-61
2023/10/17 03:31:20;;;;;;;4.40;2.10;;;;;;;;;;5023918;28;20815;-61
2023/10/17 03:33:51;;;;;;;6.33;3.03;;;;;;;;;;5021374;28;20194;-61
2023/10/17 03:39:18;;;;;;;5.43;2.80;;;1.40;99.90;;;;;;5021628;28;20425;-61
2023/10/17 03:41:45;;;;;;;5.80;2.90;;;1.30;99.90;;;;;;5024255;28;20461;-61
2023/10/17 03:44:15;;;;;;;5.30;3.07;;;1.30;99.90;;;;;;5022286;28;20976;-61
2023/10/17 03:46:46;;;;;;;4.47;2.33;;;1.40;99.90;;;;;;5021818;28;20544;-61
2023/10/17 03:49:18;;;;;;;4.67;2.70;;;1.40;99.90;;;;;;5018614;28;20437;-61
2023/10/17 03:51:47;;;;;;;6.30;3.37;;;1.40;99.90;;;;;;5020103;28;20461;-61
2023/10/17 03:54:18;;;;;;;6.43;2.80;;;;;;;;;;5021074;28;20983;-61
2023/10/17 03:56:49;;;;;;;4.10;1.90;;;1.40;99.90;;;;;;5017510;28;20503;-61
2023/10/17 04:01:48;;;;;;;6.47;2.73;;;1.40;99.90;;;;;;5019870;28;21204;-61
2023/10/17 04:04:18;;;;;;;6.17;3.53;;;1.40;99.90;;;;;;5021189;28;20214;-61
2023/10/17 04:06:48;;;;;;;6.17;2.67;;;1.60;99.90;;;;;;5022513;28;20436;-62
2023/10/17 04:09:21;;;;;;;11.10;5.40;;;1.50;99.90;;;;;;5020620;28;20417;-61
2023/10/17 04:11:49;;;;;;;6.00;3.23;;;1.40;99.90;;;;;;5020239;28;20421;-62
2023/10/17 04:14:17;;;;;;;12.03;3.47;;;1.50;99.90;;;;;;5018497;28;20433;-62
2023/10/17 04:16:44;;;;;;;5.73;3.33;;;1.50;99.90;;;;;;5022794;28;20983;-62
2023/10/17 04:19:20;;;;;;;6.40;2.67;;;1.30;99.90;;;;;;5020389;28;20479;-62
2023/10/17 04:24:33;;;;;;;4.93;2.63;;;1.10;99.90;;;;;;5019860;28;20476;-62
2023/10/17 04:29:34;;;;;;;5.97;2.97;;;1.10;99.90;;;;;;5019809;28;20421;-62
2023/10/17 04:32:10;;;;;;;12.23;2.73;;;1.10;99.90;;;;;;5021635;28;20465;-62
2023/10/17 04:34:39;;;;;;;5.03;2.80;;;1.30;99.90;;;;;;5019631;28;20236;-62
2023/10/17 04:37:10;;;;;;;6.43;3.10;;;1.30;99.90;;;;;;5021667;28;20484;-62
2023/10/17 04:39:35;;;;;;;4.90;2.53;;;1.40;99.90;;;;;;5019472;28;20511;-62
2023/10/17 04:42:05;;;;;;;4.37;2.63;;;1.50;99.90;;;;;;5019636;28;20429;-62
2023/10/17 04:44:33;;;;;;;7.43;4.00;;;;;;;;;;5022461;28;20202;-62
2023/10/17 04:49:30;;;;;;;7.43;4.20;;;1.60;99.90;;;;;;5019249;28;20441;-62
2023/10/17 04:52:06;;;;;;;8.07;3.13;;;1.60;99.90;;;;;;5018781;28;21120;-61
2023/10/17 04:57:04;;;;;;;9.43;5.20;;;1.50;99.90;;;;;;5022821;28;20445;-62
2023/10/17 06:16:51;;;;;;;24.13;9.90;;;;;;;;;;5020432;28;20455;-61
2023/10/17 06:19:21;;;;;;;21.23;10.03;;;2.50;99.90;;;;;;5019253;28;20436;-61
2023/10/17 06:34:47;;;;;;;17.30;6.27;;;;;;;;;;5019375;28;20425;-61
2023/10/17 06:37:20;;;;;;;13.80;6.20;;;;;;;;;;5019604;28;20903;-61
2023/10/17 06:39:49;;;;;;;16.33;7.80;;;;;;;;;;5016247;28;20895;-61
2023/10/17 06:42:27;;;;;;;14.20;5.27;;;;;;;;;;5017200;28;20810;-61
2023/10/17 06:45:07;;;;;;;14.33;6.33;;;;;;;;;;5024128;28;20431;-61
2023/10/17 06:47:47;;;;;;;11.97;5.70;;;;;;;;;;5022534;28;20451;-60
2023/10/17 06:55:28;;;;;;;10.30;5.40;;;;;;;;;;5020946;28;20436;-61
2023/10/17 06:58:08;;;;;;;12.63;6.90;;;;;;;;;;5022583;28;20484;-61
2023/10/17 07:00:51;;;;;;;9.07;5.77;;;;;;;;;;5022334;28;20428;-61
2023/10/17 07:03:24;;;;;;;13.20;5.77;;;3.30;99.90;;;;;;5021938;28;20479;-62
2023/10/17 07:06:01;;;;;;;13.60;5.97;;;3.40;99.90;;;;;;5022591;28;20417;-61
2023/10/17 07:08:36;;;;;;;14.67;6.50;;;;;;;;;;5023516;28;20499;-61
2023/10/17 07:13:49;;;;;;;11.33;5.03;;;;;;;;;;5021710;28;20440;-62
2023/10/17 07:16:16;;;;;;;13.73;7.20;;;;;;;;;;5021505;28;20429;-62
2023/10/17 07:18:47;;;;;;;28.33;12.07;;;;;;;;;;5020612;28;20507;-61
2023/10/17 07:23:42;;;;;;;18.43;9.27;;;;;;;;;;5020615;28;20464;-61
2023/10/17 07:26:17;;;;;;;14.80;7.07;;;;;;;;;;5019209;28;20428;-62
2023/10/17 07:28:49;;;;;;;14.03;6.47;;;;;;;;;;5020112;28;20424;-62
2023/10/17 07:31:16;;;;;;;13.03;7.57;;;;;;;;;;5018412;28;20525;-61
2023/10/17 07:33:43;;;;;;;15.40;7.27;;;;;;;;;;5019601;28;20480;-62
2023/10/17 07:36:18;;;;;;;22.93;7.17;;;4.40;99.90;;;;;;5020700;28;20443;-62
2023/10/17 07:38:44;;;;;;;11.33;5.47;;;4.30;99.90;;;;;;5020022;28;20429;-61
2023/10/17 07:41:13;;;;;;;10.03;5.17;;;4.30;99.90;;;;;;5021252;28;20532;-62
2023/10/17 07:43:45;;;;;;;15.73;6.53;;;4.40;99.90;;;;;;5020243;28;20461;-62
2023/10/17 07:46:19;;;;;;;12.70;5.70;;;4.60;99.90;;;;;;5021399;28;20520;-62
2023/10/17 07:48:51;;;;;;;13.80;6.27;;;5.10;99.90;;;;;;5019089;28;20425;-62
2023/10/17 07:51:18;;;;;;;14.43;5.50;;;5.10;99.90;;;;;;5017968;28;20563;-61
2023/10/17 07:53:47;;;;;;;17.17;5.53;;;;;;;;;;5017466;28;20444;-61
2023/10/17 07:56:24;;;;;;;13.43;5.90;;;6.00;99.90;;;;;;5019636;28;21176;-61
2023/10/17 08:01:46;;;;;;;13.70;7.00;;;6.40;99.90;;;;;;5012460;28;20426;-64
2023/10/17 08:04:18;;;;;;;10.63;5.67;;;;;;;;;;5019762;28;20490;-64
2023/10/17 08:06:44;;;;;;;12.43;6.07;;;;;;;;;;5018244;28;20432;-64
2023/10/17 08:11:53;;;;;;;13.10;5.97;;;;;;;;;;5019236;28;20429;-64
2023/10/17 08:14:22;;;;;;;11.00;5.33;;;;;;;;;;5019987;28;20433;-64
2023/10/17 08:16:49;;;;;;;18.10;6.33;;;;;;;;;;5017705;28;20435;-64
2023/10/17 08:19:16;;;;;;;19.90;7.30;;;;;;;;;;5017374;28;21193;-64
2023/10/17 08:22:10;;;;;;;13.20;6.07;;;7.20;99.90;;;;;;5019195;28;20429;-61
2023/10/17 08:30:23;;;;;;;12.67;5.50;;;;;;;;;;5009195;28;20429;-62
2023/10/17 08:33:11;;;;;;;16.47;7.53;;;;;;;;;;5015892;28;20829;-62
2023/10/17 08:38:03;;;;;;;15.70;6.20;;;;;;;;;;5019639;28;20433;-64
2023/10/17 08:40:31;;;;;;;14.37;6.90;;;;;;;;;;5020355;28;20426;-64
2023/10/17 08:43:01;;;;;;;12.20;6.27;;;7.40;99.90;;;;;;5017117;28;20465;-64
2023/10/17 08:45:27;;;;;;;9.53;5.30;;;;;;;;;;5017995;28;20643;-64
2023/10/17 08:48:00;;;;;;;8.10;4.87;;;7.90;99.90;;;;;;5017833;28;20436;-64
2023/10/17 08:50:26;;;;;;;9.80;5.80;;;;;;;;;;5020798;28;20433;-64
2023/10/17 08:52:53;;;;;;;19.20;6.20;;;8.00;99.90;;;;;;5016981;28;20491;-64
2023/10/17 08:55:21;;;;;;;8.93;4.47;;;8.20;99.90;;;;;;5018097;28;20437;-64
2023/10/17 08:57:47;;;;;;;12.23;5.70;;;;;;;;;;5018036;28;20506;-64
2023/10/17 09:02:48;;;;;;;13.27;5.80;;;;;;;;;;5016408;28;20438;-64
2023/10/17 09:05:27;;;;;;;12.10;6.03;;;8.40;99.90;;;;;;5018204;28;20422;-64
2023/10/17 09:07:56;;;;;;;15.60;5.00;;;8.50;99.90;;;;;;5020283;28;20461;-64
2023/10/17 09:10:37;;;;;;;8.10;4.67;;;8.60;99.90;;;;;;5018271;28;20429;-64
2023/10/17 09:15:50;;;;;;;13.97;6.60;;;8.50;99.90;;;;;;5023009;28;20412;-64
2023/10/17 09:18:28;;;;;;;13.70;5.13;;;9.10;99.90;;;;;;5016556;28;20433;-64
2023/10/17 09:21:03;;;;;;;9.03;5.10;;;8.80;99.90;;;;;;5020391;28;20462;-64
2023/10/17 09:23:30;;;;;;;10.50;5.20;;;9.00;99.90;;;;;;5021186;28;20473;-64
2023/10/17 09:26:01;;;;;;;9.00;4.90;;;8.90;99.90;;;;;;5019449;28;20437;-64
2023/10/17 09:28:28;;;;;;;10.70;5.83;;;9.00;99.90;;;;;;5018937;28;20634;-64
2023/10/17 09:31:03;;;;;;;10.70;5.47;;;9.10;99.90;;;;;;5020958;28;21026;-64
2023/10/17 09:33:30;;;;;;;11.93;5.93;;;9.00;99.90;;;;;;5016366;28;20439;-64
2023/10/17 09:35:58;;;;;;;13.87;6.73;;;9.10;99.90;;;;;;5019589;28;20472;-64
2023/10/17 09:38:28;;;;;;;11.20;6.50;;;9.10;99.90;;;;;;5019500;28;20445;-64
2023/10/17 09:41:01;;;;;;;9.77;4.80;;;9.10;99.90;;;;;;5020319;28;20440;-64
2023/10/17 09:43:29;;;;;;;8.10;4.90;;;9.10;99.90;;;;;;5017238;28;20464;-64
2023/10/17 09:46:02;;;;;;;10.87;5.63;;;9.20;99.90;;;;;;5018405;28;20475;-64
2023/10/17 09:48:34;;;;;;;10.70;6.10;;;9.10;99.90;;;;;;5020119;28;20430;-64
2023/10/17 09:51:02;;;;;;;11.20;5.50;;;9.10;99.90;;;;;;5021620;28;20793;-64
2023/10/17 09:53:32;;;;;;;11.70;5.87;;;9.30;99.90;;;;;;5019004;28;20539;-64
2023/10/17 09:56:19;;;;;;;11.77;5.40;;;9.40;99.90;;;;;;5017086;28;20933;-64
2023/10/17 09:58:50;;;;;;;10.47;5.33;;;9.40;99.90;;;;;;5015506;28;20944;-64
2023/10/17 10:01:20;;;;;;;8.57;5.30;;;9.50;99.90;;;;;;5016833;28;20452;-64
2023/10/17 10:03:48;;;;;;;15.93;5.93;;;9.80;99.60;;;;;;5016867;28;20603;-64
2023/10/17 10:06:27;;;;;;;9.47;4.90;;;9.90;99.70;;;;;;5016750;28;20437;-64
2023/10/17 10:09:24;;;;;;;7.87;4.60;;;9.80;99.90;;;;;;5014860;28;20472;-64
2023/10/17 10:11:49;;;;;;;8.33;4.90;;;10.40;99.40;;;;;;5008819;28;20438;-64
2023/10/17 10:14:26;;;;;;;6.90;3.43;;;10.00;99.30;;;;;;5017010;28;20801;-64
2023/10/17 10:16:57;;;;;;;9.30;5.20;;;10.20;98.60;;;;;;5018613;28;20278;-63
2023/10/17 10:19:27;;;;;;;12.00;5.93;;;10.20;98.00;;;;;;5017479;28;20528;-64
2023/10/17 10:21:57;;;;;;;11.63;4.70;;;10.00;98.40;;;;;;5016425;28;20542;-64
2023/10/17 10:24:28;;;;;;;7.90;5.13;;;10.20;98.50;;;;;;5018551;28;20464;-64
2023/10/17 10:27:17;;;;;;;13.33;5.60;;;10.20;98.10;;;;;;5018119;28;20918;-64
2023/10/17 10:29:44;;;;;;;9.60;5.03;;;10.30;97.50;;;;;;5016782;28;20452;-64
2023/10/17 10:32:25;;;;;;;9.47;5.27;;;10.50;98.10;;;;;;5013238;28;20425;-64
2023/10/17 10:34:51;;;;;;;11.77;5.20;;;10.80;97.50;;;;;;5014850;28;20445;-64
2023/10/17 10:37:19;;;;;;;12.63;5.40;;;11.00;96.80;;;;;;5016130;28;20514;-64
2023/10/17 10:40:17;;;;;;;8.77;5.10;;;11.10;97.70;;;;;;5018706;28;20425;-64
2023/10/17 10:42:44;;;;;;;10.27;4.67;;;11.50;97.60;;;;;;5017506;28;20536;-64
2023/10/17 10:45:31;;;;;;;11.30;5.00;;;11.40;97.10;;;;;;5016019;28;20437;-64
2023/10/17 10:48:01;;;;;;;8.53;4.87;;;11.40;96.80;;;;;;5014917;28;20464;-64
2023/10/17 10:50:33;;;;;;;13.10;6.30;;;11.40;96.90;;;;;;5017648;28;20437;-64
2023/10/17 10:53:17;;;;;;;18.63;6.57;;;11.30;97.60;;;;;;5016472;28;20443;-64
2023/10/17 10:55:42;;;;;;;9.87;5.63;;;11.40;97.10;;;;;;5015661;28;20520;-64
2023/10/17 10:58:10;;;;;;;7.50;4.40;;;11.40;96.80;;;;;;5015789;28;20506;-64
2023/10/17 11:00:36;;;;;;;12.17;5.60;;;11.10;97.50;;;;;;5015887;28;20186;-64
2023/10/17 11:03:05;;;;;;;10.10;5.27;;;11.40;96.90;;;;;;5015830;28;20465;-63
2023/10/17 11:05:30;;;;;;;7.40;4.93;;;11.60;96.60;;;;;;5019100;28;20635;-64
2023/10/17 11:08:00;;;;;;;18.57;5.70;;;11.50;96.80;;;;;;5014845;28;20441;-64
2023/10/17 11:10:26;;;;;;;13.23;5.30;;;11.90;97.20;;;;;;5011455;28;20249;-64
2023/10/17 11:12:55;;;;;;;14.10;5.27;;;12.20;96.80;;;;;;5015370;28;20436;-64
2023/10/17 11:15:32;;;;;;;12.90;5.10;;;11.90;96.30;;;;;;5019494;28;20529;-64
2023/10/17 11:18:06;;;;;;;11.20;5.40;;;12.00;96.30;;;;;;5016855;28;20465;-64
2023/10/17 11:20:33;;;;;;;7.80;4.20;;;12.00;96.00;;;;;;5018676;28;20468;-64
2023/10/17 11:22:59;;;;;;;9.87;4.97;;;12.10;96.10;;;;;;5017952;28;21092;-64
2023/10/17 11:25:28;;;;;;;10.70;4.60;;;12.00;95.30;;;;;;5019174;28;20433;-64
2023/10/17 11:28:00;;;;;;;11.80;4.50;;;12.10;95.40;;;;;;5015714;28;20244;-64
2023/10/17 11:30:34;;;;;;;8.43;4.20;;;11.90;95.50;;;;;;5020815;28;20437;-64
2023/10/17 11:33:02;;;;;;;15.50;5.00;;;11.40;96.20;;;;;;5021006;28;20445;-63
2023/10/17 11:35:31;;;;;;;6.80;4.20;;;11.50;96.40;;;;;;5020492;28;20438;-64
2023/10/17 11:37:57;;;;;;;8.80;4.40;;;11.50;96.20;;;;;;5021944;28;20528;-64
2023/10/17 11:41:07;;;;;;;11.47;5.00;;;11.60;96.10;;;;;;5020469;28;20441;-64
2023/10/17 11:43:28;;;;;;;8.87;4.60;;;11.60;96.20;;;;;;5019417;28;20473;-63
2023/10/17 11:45:56;;;;;;;9.70;5.13;;;11.50;96.20;;;;;;5020671;28;20832;-64
2023/10/17 11:48:26;;;;;;;7.90;3.70;;;11.60;96.10;;;;;;5021891;28;20433;-64
2023/10/17 11:51:05;;;;;;;8.20;4.63;;;11.70;96.10;;;;;;5020442;28;20441;-64
2023/10/17 11:53:34;;;;;;;14.07;5.50;;;11.70;95.90;;;;;;5020559;28;20435;-64
2023/10/17 11:56:01;;;;;;;10.57;5.10;;;11.80;96.00;;;;;;5022450;28;20475;-64
2023/10/17 11:58:30;;;;;;;11.20;5.07;;;11.70;96.40;;;;;;5019667;28;20464;-64
2023/10/17 12:00:56;;;;;;;12.10;4.70;;;11.50;96.50;;;;;;5022598;28;20431;-64
2023/10/17 12:03:25;;;;;;;6.60;4.10;;;11.90;97.00;;;;;;5020145;28;20945;-64
2023/10/17 12:05:51;;;;;;;9.63;5.00;;;11.80;96.70;;;;;;5020917;28;20807;-64
2023/10/17 12:08:22;;;;;;;10.27;5.33;;;11.70;96.10;;;;;;5021298;28;20448;-64
2023/10/17 12:10:50;;;;;;;21.13;5.27;;;11.90;96.30;;;;;;5018849;28;20237;-64
2023/10/17 12:13:17;;;;;;;9.10;4.93;;;12.00;96.00;;;;;;5020660;28;20510;-64
2023/10/17 12:15:44;;;;;;;9.60;4.60;;;11.70;96.00;;;;;;5020960;28;20441;-64
2023/10/17 12:18:11;;;;;;;12.20;6.03;;;11.80;96.40;;;;;;5019417;28;20823;-64
2023/10/17 12:20:49;;;;;;;11.30;5.70;;;11.80;96.00;;;;;;5020808;28;20445;-63
2023/10/17 12:23:14;;;;;;;10.97;5.97;;;11.90;95.90;;;;;;5020390;28;20472;-64
2023/10/17 12:25:42;;;;;;;11.53;4.83;;;11.70;96.30;;;;;;5018377;28;21049;-64
2023/10/17 12:28:08;;;;;;;7.73;4.63;;;11.60;96.60;;;;;;5019823;28;20715;-64
2023/10/17 12:30:39;;;;;;;11.53;6.10;;;11.70;97.00;;;;;;5018615;28;20527;-64
2023/10/17 12:33:05;;;;;;;10.20;5.30;;;11.80;96.60;;;;;;5018973;28;20482;-64
2023/10/17 12:35:31;;;;;;;14.00;5.30;;;11.70;96.50;;;;;;5018149;28;20434;-63
2023/10/17 12:38:06;;;;;;;8.67;4.23;;;11.70;96.10;;;;;;5019720;28;20846;-64
2023/10/17 12:40:32;;;;;;;16.53;5.03;;;11.70;96.30;;;;;;5018678;28;20190;-63
2023/10/17 12:42:58;;;;;;;14.23;5.90;;;11.60;96.80;;;;;;5018261;28;20460;-64
2023/10/17 12:45:24;;;;;;;8.80;5.40;;;11.80;96.10;;;;;;5018658;28;20502;-64
2023/10/17 12:47:50;;;;;;;11.50;5.80;;;11.90;95.80;;;;;;5017125;28;20305;-64
2023/10/17 12:50:19;;;;;;;12.93;5.30;;;11.90;96.10;;;;;;5020140;28;20820;-63
2023/10/17 12:52:45;;;;;;;17.67;6.43;;;11.90;96.10;;;;;;5017363;28;21364;-64
2023/10/17 12:55:11;;;;;;;13.53;5.83;;;11.90;95.90;;;;;;5018434;28;20446;-64
2023/10/17 12:57:38;;;;;;;15.50;6.20;;;11.90;96.00;;;;;;5016125;28;20198;-64
2023/10/17 13:00:11;;;;;;;12.27;5.43;;;12.00;95.60;;;;;;5020485;28;20437;-64
2023/10/17 13:02:41;;;;;;;10.73;5.70;;;11.80;96.50;;;;;;5019313;28;20469;-64
2023/10/17 13:05:11;;;;;;;11.73;6.43;;;11.50;96.70;;;;;;5020476;28;20429;-63
2023/10/17 13:07:38;;;;;;;8.70;5.20;;;11.70;96.60;;;;;;5017615;28;20528;-64
2023/10/17 13:10:05;;;;;;;8.80;5.27;;;11.60;96.40;;;;;;5018095;28;20433;-64
2023/10/17 13:12:32;;;;;;;11.30;6.00;;;11.80;96.70;;;;;;5016893;28;20441;-63
2023/10/17 13:14:57;;;;;;;12.43;6.00;;;11.80;96.40;;;;;;5020302;28;20555;-64
2023/10/17 13:17:24;;;;;;;11.10;5.13;;;12.00;97.10;;;;;;5016583;28;20933;-64
2023/10/17 13:19:51;;;;;;;10.90;5.20;;;11.80;96.50;;;;;;5018926;28;20191;-64
2023/10/17 13:22:17;;;;;;;10.60;5.47;;;11.90;96.60;;;;;;5017821;28;20528;-63
2023/10/17 13:24:48;;;;;;;12.70;6.27;;;12.10;96.40;;;;;;5019821;28;20469;-63
2023/10/17 13:27:15;;;;;;;18.33;5.10;;;11.90;96.40;;;;;;5015595;28;20487;-64
2023/10/17 13:29:42;;;;;;;11.23;5.70;;;11.70;96.80;;;;;;5014319;28;20848;-64
2023/10/17 13:32:07;;;;;;;12.97;5.90;;;11.80;96.70;;;;;;5013911;28;21310;-63
2023/10/17 13:34:39;;;;;;;10.97;5.70;;;11.90;96.50;;;;;;5014621;28;20928;-63
2023/10/17 13:37:04;;;;;;;12.23;5.83;;;12.00;96.70;;;;;;5015158;28;21113;-64
2023/10/17 13:39:34;;;;;;;13.20;5.60;;;11.90;97.10;;;;;;5013449;28;20437;-64
2023/10/17 13:42:03;;;;;;;8.70;4.77;;;12.10;96.90;;;;;;5015709;28;20194;-64
2023/10/17 13:44:30;;;;;;;9.63;5.40;;;12.00;96.40;;;;;;5013690;28;20471;-64
2023/10/17 13:46:56;;;;;;;12.10;5.90;;;12.10;96.30;;;;;;5013721;28;20433;-63
2023/10/17 13:49:22;;;;;;;14.90;5.90;;;11.90;97.00;;;;;;5013485;28;21128;-64
2023/10/17 13:51:48;;;;;;;11.20;5.80;;;12.00;96.70;;;;;;5014559;28;20464;-64
2023/10/17 13:54:15;;;;;;;10.00;5.07;;;12.10;96.90;;;;;;5014378;28;20221;-63
2023/10/17 13:56:41;;;;;;;17.57;6.67;;;12.20;96.60;;;;;;5017533;28;20544;-63
2023/10/17 13:59:11;;;;;;;7.63;4.53;;;12.30;96.80;;;;;;5017095;28;20456;-63
2023/10/17 14:01:46;;;;;;;10.17;5.90;;;12.30;97.10;;;;;;5017927;28;20503;-63
2023/10/17 14:04:12;;;;;;;8.27;4.63;;;12.50;96.60;;;;;;5018069;28;20521;-64
2023/10/17 14:06:45;;;;;;;14.50;6.20;;;12.80;96.50;;;;;;5019237;28;20433;-63
2023/10/17 14:09:14;;;;;;;14.07;5.37;;;12.80;95.90;;;;;;5016641;28;20440;-63
2023/10/17 14:11:53;;;;;;;13.83;5.77;;;12.90;95.80;;;;;;5017591;28;20521;-64
2023/10/17 14:14:18;;;;;;;6.53;5.00;;;13.10;96.00;;;;;;5018991;28;20527;-63
2023/10/17 14:16:44;;;;;;;10.03;5.33;;;13.10;95.70;;;;;;5017786;28;20738;-63
2023/10/17 14:19:28;;;;;;;9.93;5.53;;;13.00;96.20;;;;;;5019056;28;20225;-63
2023/10/17 14:27:25;;;;;;;9.60;5.37;;;12.60;95.70;;;;;;5017746;28;20425;-61
2023/10/17 14:29:52;;;;;;;9.60;5.17;;;12.40;96.60;;;;;;5018629;28;20437;-61
2023/10/17 14:32:21;;;;;;;11.57;5.40;;;12.40;96.30;;;;;;5013763;28;20436;-62
2023/10/17 14:34:48;;;;;;;10.77;4.97;;;12.30;96.90;;;;;;5017782;28;20587;-62
2023/10/17 14:37:14;;;;;;;7.80;5.07;;;12.30;96.70;;;;;;5019007;28;20436;-61
2023/10/17 14:39:41;;;;;;;11.70;5.30;;;12.10;97.10;;;;;;5015437;28;20421;-61
2023/10/17 14:42:10;;;;;;;12.63;5.27;;;12.10;96.80;;;;;;5018851;28;21017;-61
2023/10/17 14:44:36;;;;;;;16.93;5.53;;;12.00;96.70;;;;;;5016577;28;20567;-61
2023/10/17 14:47:05;;;;;;;16.77;5.60;;;11.90;97.00;;;;;;5016818;28;20917;-61
2023/10/17 14:49:31;;;;;;;10.93;4.60;;;11.80;97.10;;;;;;5015241;28;20491;-62
2023/10/17 14:51:57;;;;;;;9.80;5.13;;;11.70;97.10;;;;;;5016898;28;20957;-61
2023/10/17 14:54:23;;;;;;;11.00;5.70;;;11.70;97.10;;;;;;5017834;28;20186;-62
2023/10/17 14:57:01;;;;;;;12.13;5.60;;;11.70;97.10;;;;;;5017654;28;20225;-61
2023/10/17 14:59:28;;;;;;;9.03;4.67;;;11.70;96.90;;;;;;5017748;28;20440;-61
2023/10/17 15:01:53;;;;;;;13.23;5.60;;;11.50;97.40;;;;;;5016069;28;20469;-61
2023/10/17 15:04:20;;;;;;;11.57;5.33;;;11.60;97.70;;;;;;5018397;28;20588;-61
2023/10/17 15:06:45;;;;;;;10.50;5.30;;;11.40;97.50;;;;;;5021147;28;20178;-62
2023/10/17 15:09:14;;;;;;;12.50;5.80;;;11.50;97.90;;;;;;5019273;28;20437;-62
2023/10/17 15:11:40;;;;;;;14.60;6.53;;;11.40;97.60;;;;;;5019292;28;20324;-61
2023/10/17 15:14:06;;;;;;;8.80;4.93;;;11.40;97.70;;;;;;5022085;28;20492;-61
2023/10/17 15:16:31;;;;;;;8.77;4.90;;;11.30;97.80;;;;;;5020977;28;20281;-62
2023/10/17 15:18:57;;;;;;;7.10;4.77;;;11.20;98.00;;;;;;5020565;28;20889;-61
2023/10/17 15:21:23;;;;;;;15.50;6.30;;;11.10;98.00;;;;;;5021121;28;20267;-62
2023/10/17 15:23:50;;;;;;;10.60;6.40;;;11.10;98.10;;;;;;5019186;28;20216;-61
2023/10/17 15:26:16;;;;;;;10.20;5.20;;;10.90;97.90;;;;;;5020440;28;20186;-61
2023/10/17 15:28:46;;;;;;;8.87;5.20;;;10.90;98.20;;;;;;5018389;28;20439;-61
2023/10/17 15:31:14;;;;;;;9.17;4.90;;;10.80;98.50;;;;;;5020372;28;20186;-61
2023/10/17 15:33:40;;;;;;;12.20;5.97;;;10.80;98.60;;;;;;5018416;28;21710;-61
2023/10/17 15:36:07;;;;;;;11.93;5.30;;;10.80;98.80;;;;;;5020491;28;20531;-61
2023/10/17 15:38:32;;;;;;;7.57;4.33;;;10.70;99.10;;;;;;5019355;28;20554;-61
2023/10/17 15:41:00;;;;;;;12.30;5.53;;;10.60;99.30;;;;;;5022899;28;20524;-61
2023/10/17 15:43:26;;;;;;;10.40;5.30;;;10.60;99.30;;;;;;5019289;28;20209;-61
2023/10/17 15:45:54;;;;;;;10.23;5.90;;;10.50;99.40;;;;;;5022633;28;20436;-62